Mt. Lincoln Summit Weather observations

Data are for 10 minute period ending at time listed.
 Day   Time   Solar   Ave.   Ave.  Ave.  Vector    Max.   Stn.  
  of    of     Rad.   Air    Rel.  Wind   Wind     Wind   Baro.  
Year   Day            Temp.  Hum.  Speed  Dir.     Gust   Pres. 
2015   (PST)   W/m2    F      %     mph   deg.      mph    mb    
-----------------------------------------------------------------
  62    3:50  999.0    18   83.9    20    339.0    25.3   599.00
  62    4:00  999.0    18   83.9    13    342.0    15.8   596.80
  62    4:10  999.0    18   83.9    14    347.0    18.3   597.60
  62    4:20  999.0    18   83.8    17    348.1    21.5   595.40
  62    4:30  999.0    18   83.7    19    341.6    23.6   597.60
  62    4:40  999.0    18   83.8    19    342.3    22.8   598.90
  62    4:50  999.0    18   83.7    21    343.7    24.0   599.40
  62    5:00  999.0    18   83.7    19    348.9    24.9   597.20
  62    5:10  999.0    18   83.7    20    352.9    24.1   601.10
  62    5:20  999.0    18   83.6    20    351.8    23.7   601.10
  62    5:30  999.0    18   83.6    20    355.7    23.0   599.20
  62    5:40  999.0    18   83.6    22    352.1    25.3   599.40
  62    5:50  999.0    18   83.6    22    354.9    29.6   601.30
  62    6:00  999.0    18   83.5    20      5.1    27.3   597.70
  62    6:10  999.0    18   83.5    19     24.2    24.4   599.30
  62    6:20  999.0    18   83.7    19     18.5    24.6   599.10
  62    6:30  999.0    18   83.8    20     12.3    24.2   597.80
  62    6:40  999.0    18   83.9    21     10.7    24.2   597.80
  62    6:50  999.0    18   83.9    22      9.5    28.2   598.80
  62    7:00  999.0    19   84.0    24      0.7    27.5   599.10
  62    7:10  999.0    19   84.0    24     14.2    28.0   601.20
  62    7:20  999.0    19   84.0    21     20.6    45.4   597.20
  62    7:30  999.0    19   84.1    44     11.4    52.0   606.70
  62    7:40  999.0    19   84.2    51      7.6    60.5   611.90
  62    7:50  999.0    19   84.2    43      8.9    52.2   609.40
  62    8:00  999.0    19   84.2    39     11.2    46.9   605.80
  62    8:10  999.0    20   84.2    42     11.9    49.8   609.60
  62    8:20  999.0    20   84.4    39     10.3    56.1   606.20
  62    8:30  999.0    20   84.3    30     22.0    44.9   603.20
  62    8:40  999.0    20   84.3    27     15.1    40.2   606.20
  62    8:50  999.0    20   84.5    31      4.5    41.4   609.30
  62    9:00  999.0    21   84.5    25     15.0    52.6   605.70
  62    9:10  999.0    22   84.4    17     52.8    29.9   603.40
  62    9:20  999.0    24   83.8    31     39.0    42.5   605.20
  62    9:30  999.0    22   84.2    33     40.1    43.2   598.80
  62    9:40  999.0    22   84.4    33     46.0    45.0   600.00
  62    9:50  999.0    23   84.4    34     54.4    46.5   600.20
  62   10:00  999.0    24   84.1    36     48.9    51.1   602.50
  62   10:10  999.0    23   84.0    39     47.5    50.0   603.10
  62   10:20  999.0    23   84.3    37     55.6    50.6   602.60
  62   10:30  999.0    26   83.9    31     50.7    47.0   600.30
  62   10:40  999.0    24   83.8    38     45.4    51.6   603.10
  62   10:50  999.0    24   84.1    40     49.5    57.7   602.80
  62   11:00  999.0    24   84.1    37     57.3    50.7   604.30
  62   11:10  999.0    27   83.6    41     51.9    60.6   605.80
  62   11:20  999.0    26   83.7    35     44.3    56.1   602.80
  62   11:30  999.0    25   83.9    31     50.0    55.0   597.10
  62   11:40  999.0    26   84.0    31     52.0    40.3   596.50
  62   11:50  999.0    27   83.9    25     50.0    40.4   598.50
  62   12:00  999.0    28   83.9    28     62.3    40.1   597.40
  62   12:10  999.0    29   83.6    26     56.1    47.0   596.70
  62   12:20  999.0    30   83.9    25     60.0    37.7   596.30
  62   12:30  999.0    31   84.0     8     55.2    28.5   593.50
  62   12:40  999.0    31   84.2     2     57.0    29.4   590.80
  62   12:50  999.0    32   84.0    11     42.4    33.2   596.40
  62   13:00  999.0    31   84.0    17     49.7    35.3   596.50
  62   13:10  999.0    32   84.0     6     55.4    25.7   593.40
  62   13:20  999.0    33   83.3    17     69.8    40.1   595.70
  62   13:30  999.0    34   82.2     6     58.8    36.3   593.60
  62   13:40  999.0    35   81.6     9     56.4    26.5   590.60
  62   13:50  999.0    35   81.0     5     44.9    30.2   592.60
  62   14:00  999.0    35   80.6     6     56.6    17.1   593.40
  62   14:10  999.0    35   79.8    10     26.7    24.0   596.00
  62   14:20  999.0    32   81.5    23     41.2    39.2   603.10
  62   14:30  999.0    30   83.4    14     33.2    21.7   601.00
  62   14:40  999.0    28   84.9    10     56.3    19.5   597.80
  62   14:50  999.0    28   84.4    11     57.2    30.2   594.60
  62   15:00  999.0    29   83.5    20     56.5    35.7   602.80
  62   15:10  999.0    29   83.0    20     47.1    46.9   599.80
  62   15:20  999.0    27   82.6    29     52.4    42.8   601.60
  62   15:30  999.0    27   82.7    32     61.4    45.6   603.40
  62   15:40  999.0    27   82.5    30     50.5    46.0   601.90
  62   15:50  999.0    26   82.3    39     48.2    48.6   607.60
  62   16:00  999.0    25   82.2    34     41.9    47.6   606.10
  62   16:10  999.0    24   82.4    37     51.7    46.3   604.50
  62   16:20  999.0    24   82.2    42     51.5    48.5   607.20
  62   16:30  999.0    24   82.0    29     52.0    42.7   597.20
  62   16:40  999.0    24   82.0    33     55.2    46.4   598.70
  62   16:50  999.0    24   81.7    38     43.8    44.1   599.80
  62   17:00  999.0    22   81.9    39     37.4    47.4   598.70
  62   17:10  999.0    22   82.3    41     42.3    48.4   597.40
  62   17:20  999.0    22   82.3    46     47.6    54.8   596.00
  62   17:30  999.0    22   82.4    48     54.8    56.7   598.60
  62   17:40  999.0    23   82.2    50     54.4    57.9   598.40
  62   17:50  999.0    23   82.0    51     55.1    59.7   598.60
  62   18:00  999.0    22   82.1    51     57.2    58.5   594.80
  62   18:10  999.0    21   82.3    50     58.1    56.3   595.90
  62   18:20  999.0    21   82.6    49     60.4    59.0   593.80
  62   18:30  999.0    20   82.8    43     67.6    54.0   590.00
  62   18:40  999.0    20   83.0    42     71.7    53.0   592.80
  62   18:50  999.0    20   83.1    44     73.1    54.2   593.10
  62   19:00  999.0    20   83.2    45     73.7    57.0   588.70
  62   19:10  999.0    20   83.3    47     79.2    56.8   591.00
  62   19:20  999.0    19   83.4    55     71.6    75.8   594.60
  62   19:30  999.0    19   83.4    69     67.8    85.2   597.10
  62   19:40  999.0    19   83.4    72     63.0    88.5   599.30
  62   19:50  999.0    18   83.4    80     61.5    94.8   601.00
  62   20:00  999.0    18   83.4    84     56.3    96.8   605.10
  62   20:10  999.0    18   83.5    81     61.7    92.7   600.00
  62   20:20  999.0    18   83.5    79     63.6    95.0   599.50
  62   20:30  999.0    18   83.6    76     65.2    94.6   592.20
  62   20:40  999.0    18   83.5    80     61.1    96.6   599.70
  62   20:50  999.0    17   83.5    78     62.3    90.4   603.20
  62   21:00  999.0    17   83.6    72     70.6    87.1   599.70
  62   21:10  999.0    17   83.6    70     72.1    82.2   596.50
  62   21:20  999.0    17   83.6    69     71.6    81.0   596.00
  62   21:30  999.0    17   83.5    71     70.8    84.5   596.50
  62   21:40  999.0    17   83.4    77     68.1    86.9   596.80
  62   21:50  999.0    17   83.4    76     63.5    88.3   600.70
  62   22:00  999.0    16   83.5    77     68.9    89.2   601.30
  62   22:10  999.0    16   83.6    78     68.3    89.2   600.30
  62   22:20  999.0    17   83.5    68     75.6    81.1   602.10
  62   22:30  999.0    17   83.4    64     77.1    75.9   597.80
  62   22:40  999.0    16   83.3    67     75.3    79.2   598.30
  62   22:50  999.0    16   83.3    72     68.4    85.8   599.60
  62   23:00  999.0    16   83.3    73     68.7    83.9   597.40
  62   23:10  999.0    16   83.3    67     75.2    81.5   597.20
  62   23:20  999.0    16   83.2    63     78.3    74.8   591.30
  62   23:30  999.0    16   83.2    60     76.5    75.2   595.60
  62   23:40  999.0    16   83.1    59     82.0    75.7   595.10
  62   23:50  999.0    15   83.2    60     79.4    68.5   593.10
  63    0:00  999.0    15   83.2    60     82.0    72.4   590.60
  63    0:10  999.0    15   83.2    59     83.5    70.0   591.20
  63    0:20  999.0    15   83.2    58     82.8    68.8   592.70
  63    0:30  999.0    15   83.2    60     85.5    70.7   591.50
  63    0:40  999.0    15   83.1    56     87.9    72.6   588.00
  63    0:50  999.0    15   83.1    56     89.7    68.2   595.00
  63    1:00  999.0    15   83.2    56     86.0    68.8   592.70
  63    1:10  999.0    15   83.2    56     85.6    73.8   591.80
  63    1:20  999.0    15   83.2    56     86.2    71.6   588.40
  63    1:30  999.0    15   83.1    58     84.0    75.6   590.50
  63    1:40  999.0    15   83.2    60     87.3    75.4   596.00
  63    1:50  999.0    16   83.1    59     85.9    69.2   593.40
  63    2:00  999.0    16   83.1    60     86.5    68.5   594.70
  63    2:10  999.0    17   83.0    60     87.3    69.6   594.00
  63    2:20  999.0    18   82.8    65     88.1    76.0   597.60
  63    2:30  999.0    19   82.4    64     86.4    76.5   594.20
  63    2:40  999.0    18   82.4    65     86.5    78.3   596.80
  63    2:50  999.0    18   82.4    64     86.0    74.7   592.70
  63    3:00  999.0    18   82.5    65     84.8    76.6   595.20
  63    3:10  999.0    19   82.4    65     89.2    75.2   596.30
  63    3:20  999.0    19   82.1    63     86.6    74.8   594.50
  63    3:30  999.0    19   81.9    62     84.6    73.2   591.00
  63    3:40  999.0    18   82.0    61     88.1    69.9   589.90

Return to Mt. Lincoln graphs page.


Western Regional Climate Center,wrcc@dri.edu